Time;durP1;ratioP1;P1;durP2;ratioP2;P2;SDS_P1;SDS_P2;PMS_P1;PMS_P2;Temp;Humidity;BMP_temperature;BMP_pressure;BME280_temperature;BME280_humidity;BME280_pressure;Samples;Min_cycle;Max_cycle;Signal;HPM_P1;HPM_P2
2021/01/31 06:00:48;;;;;;;14.53;6.33;;;-2.20;97.30;;;;;;5902426;23;21167;-71
2021/01/31 06:03:19;;;;;;;12.40;6.70;;;-2.30;97.30;;;;;;4954585;28;20494;-73
2021/01/31 06:05:45;;;;;;;10.73;5.67;;;-2.30;97.30;;;;;;4953447;28;20408;-73
2021/01/31 06:08:29;;;;;;;11.43;6.57;;;-2.40;97.30;;;;;;4953546;28;20411;-72
2021/01/31 06:11:02;;;;;;;13.70;6.90;;;-2.50;97.30;;;;;;4947585;28;20191;-72
2021/01/31 06:13:28;;;;;;;12.43;6.40;;;-2.50;97.30;;;;;;4934406;29;20419;-72
2021/01/31 06:15:57;;;;;;;13.60;6.40;;;-2.60;97.30;;;;;;4934483;29;20455;-72
2021/01/31 06:18:41;;;;;;;10.80;6.73;;;-2.60;97.30;;;;;;4934199;29;20436;-73
2021/01/31 06:21:19;;;;;;;12.07;6.17;;;-2.60;97.30;;;;;;4934035;29;20439;-72
2021/01/31 06:23:49;;;;;;;14.40;6.33;;;-2.60;97.30;;;;;;4935915;29;20514;-72
2021/01/31 06:26:39;;;;;;;10.50;6.10;;;-2.60;97.30;;;;;;4937889;29;20424;-72
2021/01/31 06:29:13;;;;;;;9.30;6.60;;;-2.70;97.30;;;;;;4938417;29;20423;-73
2021/01/31 06:31:51;;;;;;;10.80;6.30;;;-2.80;97.30;;;;;;4937811;29;20458;-72
2021/01/31 06:34:17;;;;;;;10.23;6.27;;;-2.80;97.30;;;;;;4939118;29;20941;-72
2021/01/31 06:36:57;;;;;;;9.57;6.30;;;-2.90;97.30;;;;;;4939175;29;20455;-73
2021/01/31 06:39:56;;;;;;;10.33;5.90;;;-2.90;97.30;;;;;;4939231;29;20258;-72
2021/01/31 06:42:39;;;;;;;10.73;6.17;;;-3.00;97.30;;;;;;4938741;29;20530;-73
2021/01/31 06:45:17;;;;;;;14.63;6.53;;;-3.00;97.30;;;;;;4939182;28;20482;-73
2021/01/31 06:48:07;;;;;;;14.37;6.03;;;-3.10;97.30;;;;;;4937757;29;20455;-73
2021/01/31 06:51:01;;;;;;;10.57;5.97;;;-3.10;97.30;;;;;;4937574;29;20483;-73
2021/01/31 06:53:35;;;;;;;11.57;5.67;;;-3.10;97.30;;;;;;4938701;29;20462;-73
2021/01/31 06:56:24;;;;;;;12.37;6.80;;;-3.10;97.30;;;;;;4937608;29;20838;-73
2021/01/31 06:59:05;;;;;;;13.90;6.00;;;-3.10;97.30;;;;;;4938443;29;20432;-73
2021/01/31 07:01:50;;;;;;;11.43;6.60;;;-3.20;97.30;;;;;;4936660;29;20603;-73
2021/01/31 07:04:49;;;;;;;15.77;6.90;;;-3.40;97.30;;;;;;4938774;29;20502;-73
2021/01/31 07:07:37;;;;;;;12.53;7.00;;;-3.50;97.30;;;;;;4937391;29;20846;-73
2021/01/31 07:10:20;;;;;;;14.40;7.50;;;-3.60;97.30;;;;;;4938530;29;20414;-73
2021/01/31 07:13:11;;;;;;;14.00;6.63;;;-3.60;97.30;;;;;;4936632;29;20765;-72
2021/01/31 07:16:03;;;;;;;21.20;6.80;;;-3.60;97.30;;;;;;4936255;29;20501;-73
2021/01/31 07:18:33;;;;;;;15.20;7.33;;;-3.60;97.30;;;;;;4902316;29;20436;-74
2021/01/31 07:21:00;;;;;;;14.10;6.93;;;-3.60;97.30;;;;;;4947989;28;20438;-73
2021/01/31 07:23:35;;;;;;;11.73;6.83;;;-3.50;97.30;;;;;;4949184;28;20518;-73
2021/01/31 07:26:19;;;;;;;14.20;6.50;;;-3.40;97.30;;;;;;4949159;28;20431;-73
2021/01/31 07:28:45;;;;;;;14.23;6.97;;;-3.40;97.30;;;;;;4949059;28;20423;-73
2021/01/31 07:31:17;;;;;;;12.90;6.87;;;-3.30;97.30;;;;;;4948229;28;20451;-74
2021/01/31 07:34:05;;;;;;;10.60;6.30;;;-3.30;97.30;;;;;;4948268;29;20187;-73
2021/01/31 07:36:34;;;;;;;15.73;6.80;;;-3.20;97.30;;;;;;4942131;28;20873;-74
2021/01/31 07:39:02;;;;;;;16.00;7.07;;;-3.20;97.30;;;;;;4937115;29;20506;-73
2021/01/31 07:41:29;;;;;;;24.23;8.93;;;-3.10;97.30;;;;;;4938789;29;20428;-73
2021/01/31 07:43:59;;;;;;;19.67;7.80;;;-3.00;97.30;;;;;;4945227;28;20430;-74
2021/01/31 07:46:26;;;;;;;22.83;9.47;;;-3.00;97.30;;;;;;4948436;29;20423;-74
2021/01/31 07:49:01;;;;;;;21.40;9.13;;;-2.90;97.30;;;;;;4953607;29;20418;-72
2021/01/31 07:51:27;;;;;;;28.13;9.70;;;-2.90;97.30;;;;;;4917325;29;20453;-73
2021/01/31 07:53:54;;;;;;;24.43;9.13;;;-2.90;97.30;;;;;;4942035;29;20422;-74
2021/01/31 07:56:26;;;;;;;16.07;8.77;;;-2.80;97.30;;;;;;4936867;29;20261;-73
2021/01/31 07:58:59;;;;;;;16.00;7.43;;;-2.80;97.30;;;;;;4944096;29;20951;-74
2021/01/31 08:01:40;;;;;;;19.57;8.57;;;-2.80;97.30;;;;;;4943078;28;20933;-73
2021/01/31 08:04:18;;;;;;;14.60;7.60;;;-2.70;97.30;;;;;;4945173;29;20445;-74
2021/01/31 08:06:48;;;;;;;16.10;8.30;;;-2.60;97.30;;;;;;4930185;29;20422;-74
2021/01/31 08:09:26;;;;;;;19.23;8.10;;;-2.50;97.30;;;;;;4954369;28;20423;-73
2021/01/31 08:11:54;;;;;;;18.83;8.90;;;-2.40;97.30;;;;;;4955443;28;20438;-72
2021/01/31 08:14:58;;;;;;;18.77;8.60;;;-2.30;97.30;;;;;;4941189;29;20416;-72
2021/01/31 08:17:45;;;;;;;17.10;8.47;;;-2.30;97.30;;;;;;4942324;29;20421;-73
2021/01/31 08:20:17;;;;;;;14.93;7.80;;;-2.20;97.30;;;;;;4946954;28;20434;-73
2021/01/31 08:22:44;;;;;;;18.83;9.17;;;-2.10;97.30;;;;;;4939062;29;20479;-73
2021/01/31 08:25:12;;;;;;;20.23;10.30;;;-2.00;97.30;;;;;;4947261;29;20446;-73
2021/01/31 08:27:41;;;;;;;21.93;9.97;;;-2.00;97.30;;;;;;4935999;28;20937;-73
2021/01/31 08:30:55;;;;;;;22.80;11.13;;;-1.90;97.30;;;;;;4949975;29;20465;-74
2021/01/31 08:33:27;;;;;;;19.00;9.27;;;-1.80;97.30;;;;;;4929498;29;20792;-74
2021/01/31 08:35:52;;;;;;;17.77;8.87;;;-1.70;97.30;;;;;;4955184;29;20451;-74
2021/01/31 08:38:27;;;;;;;18.37;9.97;;;-1.60;97.30;;;;;;4946787;28;20433;-73
2021/01/31 08:41:03;;;;;;;19.60;9.03;;;-1.60;97.30;;;;;;4940095;28;20199;-74
2021/01/31 08:43:40;;;;;;;22.77;9.00;;;-1.50;97.30;;;;;;4945885;29;20420;-74
2021/01/31 08:46:24;;;;;;;18.37;9.17;;;-1.40;97.30;;;;;;4930463;28;20573;-74
2021/01/31 08:48:51;;;;;;;18.67;9.27;;;-1.30;97.30;;;;;;4939032;29;20902;-75
2021/01/31 08:51:35;;;;;;;16.10;9.27;;;-1.20;97.30;;;;;;4935230;29;20448;-75
2021/01/31 08:54:17;;;;;;;19.17;9.10;;;-1.10;97.30;;;;;;4929528;29;20416;-75
2021/01/31 08:56:48;;;;;;;18.30;9.33;;;-1.10;97.30;;;;;;4935542;29;20898;-74
2021/01/31 08:59:13;;;;;;;18.77;9.30;;;-1.00;97.30;;;;;;4935674;29;20439;-75
2021/01/31 09:01:43;;;;;;;17.50;9.00;;;-1.00;97.30;;;;;;4934540;29;20475;-74
2021/01/31 09:04:12;;;;;;;19.83;8.57;;;-0.90;97.30;;;;;;4934544;29;20171;-72
2021/01/31 09:06:40;;;;;;;18.73;9.60;;;-0.90;97.30;;;;;;4934399;29;20846;-71
2021/01/31 09:09:08;;;;;;;19.37;9.63;;;-0.80;97.30;;;;;;4935142;29;20426;-74
2021/01/31 09:11:34;;;;;;;14.57;7.87;;;-0.70;97.30;;;;;;4935247;29;20443;-74
2021/01/31 09:14:17;;;;;;;12.90;7.93;;;-0.70;97.30;;;;;;4935345;29;20780;-73
2021/01/31 09:16:43;;;;;;;17.93;8.00;;;-0.70;97.30;;;;;;4935717;29;20424;-74
2021/01/31 09:19:24;;;;;;;16.20;8.57;;;-0.60;97.30;;;;;;4936389;29;20407;-74
2021/01/31 09:22:16;;;;;;;18.60;8.20;;;-0.70;97.30;;;;;;4935115;29;20941;-74
2021/01/31 09:24:44;;;;;;;17.00;7.80;;;-0.60;97.30;;;;;;4935541;29;20972;-74
2021/01/31 09:27:24;;;;;;;11.13;6.93;;;-0.60;97.30;;;;;;4935237;29;20431;-73
2021/01/31 09:30:02;;;;;;;13.30;7.57;;;-0.60;97.30;;;;;;4936332;29;20408;-71
2021/01/31 09:32:36;;;;;;;16.47;7.80;;;-0.70;97.30;;;;;;4936192;28;20440;-71
2021/01/31 09:35:06;;;;;;;13.47;7.73;;;-0.60;97.30;;;;;;4936120;29;20444;-73
2021/01/31 09:37:33;;;;;;;15.97;8.30;;;-0.60;97.30;;;;;;4936655;29;20412;-73
2021/01/31 09:40:01;;;;;;;15.00;7.43;;;-0.40;97.30;;;;;;4935120;29;20507;-73
2021/01/31 09:42:31;;;;;;;14.13;7.40;;;-0.30;97.30;;;;;;4934784;29;20973;-73
2021/01/31 09:45:04;;;;;;;17.70;9.30;;;-0.30;97.30;;;;;;4936145;28;20451;-73
2021/01/31 09:47:30;;;;;;;14.40;8.43;;;-0.40;97.30;;;;;;4934642;29;20423;-72
2021/01/31 09:50:00;;;;;;;17.97;8.00;;;-0.40;97.30;;;;;;4934773;29;20428;-73
2021/01/31 09:52:26;;;;;;;19.30;8.53;;;-0.30;97.30;;;;;;4936166;29;20437;-73
2021/01/31 09:54:51;;;;;;;16.40;7.80;;;-0.30;97.30;;;;;;4934789;29;20460;-74
2021/01/31 09:57:27;;;;;;;17.30;8.60;;;-0.20;97.30;;;;;;4936128;29;20176;-73
2021/01/31 10:00:11;;;;;;;13.73;8.23;;;-0.10;97.30;;;;;;4935948;29;20537;-73
2021/01/31 10:02:38;;;;;;;16.20;7.57;;;0.00;97.30;;;;;;4934577;29;20503;-73
2021/01/31 10:05:08;;;;;;;15.03;8.20;;;0.00;97.30;;;;;;4936121;29;20965;-75
2021/01/31 10:07:41;;;;;;;18.23;8.63;;;0.00;97.30;;;;;;4935023;29;20977;-73
2021/01/31 10:10:31;;;;;;;17.07;8.70;;;0.20;97.30;;;;;;4934739;29;20503;-73
2021/01/31 10:13:27;;;;;;;14.40;7.80;;;0.40;97.30;;;;;;4934952;29;20503;-73
2021/01/31 10:16:00;;;;;;;16.90;8.07;;;0.60;97.30;;;;;;4935949;29;20928;-74
2021/01/31 10:18:38;;;;;;;12.40;7.77;;;0.60;96.40;;;;;;4936125;29;20420;-73
2021/01/31 10:21:16;;;;;;;17.80;8.20;;;0.50;95.90;;;;;;4935685;29;20494;-73
2021/01/31 10:23:44;;;;;;;13.70;7.43;;;0.70;96.60;;;;;;4935993;29;20447;-73
2021/01/31 10:26:14;;;;;;;13.57;7.47;;;0.80;96.10;;;;;;4936009;29;20423;-74
2021/01/31 10:29:01;;;;;;;13.80;7.70;;;0.90;96.30;;;;;;4935995;29;20400;-73
2021/01/31 10:31:31;;;;;;;14.17;7.87;;;1.10;96.40;;;;;;4934166;29;20447;-73
2021/01/31 10:33:58;;;;;;;16.47;8.53;;;1.20;95.90;;;;;;4934853;29;20563;-73
2021/01/31 10:36:33;;;;;;;15.43;8.30;;;1.10;95.20;;;;;;4934205;29;20477;-73
2021/01/31 10:39:03;;;;;;;17.33;9.10;;;1.10;95.40;;;;;;4936233;29;20416;-74
2021/01/31 10:41:29;;;;;;;18.93;8.67;;;1.10;94.90;;;;;;4934387;29;20501;-74
2021/01/31 10:44:00;;;;;;;17.80;8.47;;;1.20;95.60;;;;;;4934253;29;20446;-74
2021/01/31 10:46:27;;;;;;;17.30;9.20;;;1.20;95.20;;;;;;4934597;29;20420;-73
2021/01/31 10:48:53;;;;;;;52.17;21.80;;;1.30;95.20;;;;;;4934495;29;20419;-73
2021/01/31 10:51:19;;;;;;;19.50;10.07;;;1.30;94.40;;;;;;4935689;29;20446;-73
2021/01/31 10:53:45;;;;;;;20.83;10.60;;;1.30;94.30;;;;;;4934183;29;20660;-73
2021/01/31 10:56:10;;;;;;;20.20;9.83;;;1.30;94.50;;;;;;4934613;29;20455;-74
2021/01/31 10:58:36;;;;;;;16.77;9.70;;;1.30;94.80;;;;;;4930356;28;20209;-73
2021/01/31 11:01:03;;;;;;;19.40;10.27;;;1.40;95.00;;;;;;4933460;29;20212;-74
2021/01/31 11:03:33;;;;;;;20.03;10.63;;;1.60;95.00;;;;;;4944154;29;20430;-73
2021/01/31 11:05:58;;;;;;;17.60;8.77;;;1.80;94.70;;;;;;4953272;28;20426;-73
2021/01/31 11:08:25;;;;;;;17.87;9.20;;;2.00;94.30;;;;;;4939394;29;20432;-73
2021/01/31 11:10:51;;;;;;;18.67;10.17;;;2.10;94.10;;;;;;4934902;29;20204;-72
2021/01/31 11:13:17;;;;;;;20.10;10.20;;;2.20;94.00;;;;;;4937313;29;20980;-73
2021/01/31 11:15:43;;;;;;;24.30;11.23;;;2.40;93.80;;;;;;4937445;29;20459;-73
2021/01/31 11:18:09;;;;;;;17.30;9.30;;;2.50;93.00;;;;;;4938983;29;20548;-74
2021/01/31 11:20:34;;;;;;;16.53;9.40;;;2.50;92.20;;;;;;4937100;29;20200;-73
2021/01/31 11:23:00;;;;;;;17.03;8.77;;;2.50;92.30;;;;;;4937256;29;20552;-73
2021/01/31 11:25:25;;;;;;;23.70;10.83;;;2.60;92.30;;;;;;4937418;29;20584;-73
2021/01/31 11:27:51;;;;;;;18.77;10.00;;;2.80;92.60;;;;;;4938429;29;20239;-74
2021/01/31 11:30:17;;;;;;;18.47;9.13;;;3.00;92.30;;;;;;4937133;29;20191;-74
2021/01/31 11:32:43;;;;;;;14.40;8.10;;;2.90;89.80;;;;;;4937511;29;20238;-74
2021/01/31 11:35:09;;;;;;;18.20;9.90;;;3.10;90.50;;;;;;4937125;29;20298;-74
2021/01/31 11:37:35;;;;;;;19.07;11.17;;;3.20;90.80;;;;;;4938459;28;20176;-74
2021/01/31 11:40:00;;;;;;;18.43;9.80;;;3.40;91.70;;;;;;4937137;29;20798;-74
2021/01/31 11:42:26;;;;;;;15.37;8.40;;;3.50;90.60;;;;;;4936726;29;20665;-74
2021/01/31 11:44:52;;;;;;;17.90;8.83;;;3.50;90.20;;;;;;4936823;29;20618;-74
2021/01/31 11:47:17;;;;;;;21.53;9.00;;;3.30;90.10;;;;;;4938409;29;20590;-74
2021/01/31 11:49:43;;;;;;;15.30;9.30;;;3.30;90.60;;;;;;4936848;29;20175;-74
2021/01/31 11:52:09;;;;;;;17.47;9.43;;;3.40;90.80;;;;;;4936645;29;20203;-74
2021/01/31 11:54:37;;;;;;;16.43;7.93;;;3.50;90.80;;;;;;4937061;29;20262;-74
2021/01/31 11:57:03;;;;;;;18.70;9.40;;;3.60;90.60;;;;;;4937782;29;20183;-74
2021/01/31 11:59:28;;;;;;;18.33;9.33;;;3.60;90.40;;;;;;4936864;29;20424;-74
2021/01/31 12:01:54;;;;;;;15.33;9.63;;;3.60;89.00;;;;;;4936402;29;20977;-74
2021/01/31 12:04:20;;;;;;;19.40;9.53;;;3.60;89.00;;;;;;4936896;29;20187;-74
2021/01/31 12:06:45;;;;;;;16.27;8.77;;;3.70;89.00;;;;;;4934533;29;20634;-74
2021/01/31 12:09:11;;;;;;;15.80;8.30;;;3.80;89.50;;;;;;4939450;29;20543;-74
2021/01/31 12:11:37;;;;;;;13.23;7.83;;;3.90;89.50;;;;;;4945388;28;20230;-74
2021/01/31 12:14:03;;;;;;;15.73;8.67;;;4.00;88.70;;;;;;4945739;28;20254;-73
2021/01/31 12:16:29;;;;;;;14.30;8.10;;;4.00;89.40;;;;;;4939661;29;20219;-74
2021/01/31 12:18:55;;;;;;;13.67;8.23;;;3.90;89.60;;;;;;4939012;29;20424;-74
2021/01/31 12:21:23;;;;;;;14.53;8.20;;;3.90;90.40;;;;;;4935580;29;20530;-74
2021/01/31 12:23:52;;;;;;;14.23;8.60;;;3.90;90.10;;;;;;4947027;28;20175;-74
2021/01/31 12:26:20;;;;;;;15.50;8.60;;;4.00;90.40;;;;;;4938440;29;20459;-74
2021/01/31 12:28:45;;;;;;;15.07;8.07;;;4.10;90.10;;;;;;4935463;29;20436;-74
2021/01/31 12:31:11;;;;;;;19.27;8.77;;;4.30;89.90;;;;;;4937017;28;20892;-74
2021/01/31 12:33:37;;;;;;;15.13;9.00;;;4.30;89.30;;;;;;4936055;29;20192;-74
2021/01/31 12:36:03;;;;;;;14.20;8.60;;;4.40;89.10;;;;;;4935608;29;20298;-74
2021/01/31 12:38:29;;;;;;;13.97;7.93;;;4.40;88.80;;;;;;4935508;29;20179;-73
2021/01/31 12:40:54;;;;;;;17.20;8.77;;;4.50;89.00;;;;;;4935708;29;20454;-74
2021/01/31 12:43:20;;;;;;;17.93;9.47;;;4.60;88.80;;;;;;4936950;28;20427;-74
2021/01/31 12:45:46;;;;;;;15.10;9.00;;;4.60;87.90;;;;;;4935847;29;20207;-73
2021/01/31 12:48:11;;;;;;;15.20;9.47;;;4.50;88.40;;;;;;4936330;29;20238;-74
2021/01/31 12:50:37;;;;;;;18.63;11.00;;;4.50;88.20;;;;;;4935575;29;20211;-74
2021/01/31 12:53:03;;;;;;;17.00;9.83;;;4.60;88.70;;;;;;4935957;29;20235;-74
2021/01/31 12:55:29;;;;;;;15.07;8.10;;;4.70;88.30;;;;;;4935926;29;20200;-74
2021/01/31 12:57:54;;;;;;;16.73;9.60;;;5.00;88.30;;;;;;4936959;29;20831;-75
2021/01/31 13:00:22;;;;;;;18.60;10.07;;;5.20;87.70;;;;;;4935712;29;20637;-74
2021/01/31 13:02:48;;;;;;;15.80;9.27;;;5.20;86.70;;;;;;4935683;29;20192;-75
2021/01/31 13:05:18;;;;;;;15.87;9.43;;;5.20;86.90;;;;;;4936699;29;20416;-74
2021/01/31 13:07:44;;;;;;;19.10;10.43;;;5.20;86.50;;;;;;4936551;29;20774;-74
2021/01/31 13:10:10;;;;;;;18.20;9.80;;;5.20;86.90;;;;;;4935723;29;20419;-74
2021/01/31 13:12:36;;;;;;;15.80;9.20;;;5.30;87.00;;;;;;4935181;29;20231;-74
2021/01/31 13:15:04;;;;;;;20.50;9.90;;;5.20;86.90;;;;;;4935264;29;20892;-74
2021/01/31 13:17:29;;;;;;;18.77;9.30;;;5.30;86.70;;;;;;4936653;29;20172;-74
2021/01/31 13:19:55;;;;;;;20.73;11.87;;;5.40;86.50;;;;;;4936453;29;20418;-74
2021/01/31 13:22:20;;;;;;;20.27;10.30;;;5.40;86.70;;;;;;4934811;29;20199;-74
2021/01/31 13:24:46;;;;;;;21.60;11.20;;;5.40;86.30;;;;;;4936323;29;20235;-74
2021/01/31 13:27:12;;;;;;;23.50;11.50;;;5.60;86.40;;;;;;4935202;29;20262;-74
2021/01/31 13:29:38;;;;;;;19.17;10.33;;;5.80;85.90;;;;;;4935040;29;20247;-74
2021/01/31 13:32:05;;;;;;;21.60;12.07;;;5.90;85.70;;;;;;4936355;29;20327;-74
2021/01/31 13:34:31;;;;;;;21.43;11.67;;;6.00;85.30;;;;;;4935834;29;20416;-74
2021/01/31 13:37:00;;;;;;;21.20;10.90;;;6.10;84.60;;;;;;4934933;29;20431;-74
2021/01/31 13:39:29;;;;;;;19.70;11.20;;;6.20;84.90;;;;;;4936539;29;20506;-74
2021/01/31 13:41:54;;;;;;;18.10;10.20;;;6.40;84.50;;;;;;4934736;29;20480;-74
2021/01/31 13:44:20;;;;;;;19.47;10.60;;;6.30;83.70;;;;;;4934725;29;20532;-74
2021/01/31 13:46:46;;;;;;;18.30;9.53;;;6.10;84.00;;;;;;4935141;29;20420;-74
2021/01/31 13:49:12;;;;;;;18.33;10.50;;;5.90;84.60;;;;;;4936181;29;20419;-73
2021/01/31 13:51:37;;;;;;;20.00;11.07;;;5.90;84.90;;;;;;4934357;29;20200;-74
2021/01/31 13:54:04;;;;;;;24.90;12.07;;;5.70;84.40;;;;;;4934941;29;20190;-74
2021/01/31 13:56:29;;;;;;;23.87;11.53;;;5.40;84.70;;;;;;4934838;29;20567;-74
2021/01/31 13:58:55;;;;;;;21.07;11.40;;;5.10;86.00;;;;;;4934942;29;20428;-74
2021/01/31 14:01:21;;;;;;;23.60;11.40;;;5.10;86.60;;;;;;4935875;29;20329;-74
2021/01/31 14:03:47;;;;;;;23.87;11.30;;;5.20;86.40;;;;;;4935993;29;20176;-73
2021/01/31 14:06:13;;;;;;;19.60;10.40;;;5.30;85.70;;;;;;4934710;29;20431;-74
2021/01/31 14:08:38;;;;;;;21.60;10.73;;;5.30;85.70;;;;;;4934608;29;20179;-74
2021/01/31 14:11:04;;;;;;;22.53;11.57;;;5.20;85.70;;;;;;4934725;29;20204;-74
2021/01/31 14:13:30;;;;;;;20.03;11.50;;;5.10;85.90;;;;;;4935867;29;20176;-73
2021/01/31 14:15:55;;;;;;;21.80;11.43;;;5.10;86.30;;;;;;4934569;29;20204;-74
2021/01/31 14:18:21;;;;;;;18.80;10.87;;;5.20;86.10;;;;;;4934776;29;20187;-73
2021/01/31 14:20:48;;;;;;;20.90;10.97;;;5.50;85.60;;;;;;4934228;29;20208;-73
2021/01/31 14:23:14;;;;;;;23.33;11.60;;;5.60;85.10;;;;;;4934513;29;20950;-74
2021/01/31 14:25:40;;;;;;;22.40;11.90;;;5.60;84.60;;;;;;4936215;29;20424;-74
2021/01/31 14:28:05;;;;;;;20.70;10.27;;;5.70;84.70;;;;;;4935505;29;20280;-74
2021/01/31 14:30:31;;;;;;;18.27;10.80;;;5.90;84.30;;;;;;4934558;29;20191;-74
2021/01/31 14:32:57;;;;;;;20.53;11.63;;;6.00;83.80;;;;;;4936079;29;20180;-73
2021/01/31 14:35:27;;;;;;;21.27;10.90;;;5.80;83.70;;;;;;4935410;29;20690;-74
2021/01/31 14:37:53;;;;;;;25.47;10.13;;;5.40;83.60;;;;;;4934350;29;20184;-74
2021/01/31 14:40:21;;;;;;;19.17;9.33;;;4.80;84.40;;;;;;4935909;29;20779;-74
2021/01/31 14:42:47;;;;;;;18.30;10.27;;;4.20;85.30;;;;;;4935401;29;20204;-74
2021/01/31 14:45:19;;;;;;;22.37;11.80;;;3.80;86.50;;;;;;4937877;29;20518;-74
2021/01/31 14:47:45;;;;;;;22.17;11.90;;;3.50;87.30;;;;;;4938319;29;20917;-74
2021/01/31 14:50:11;;;;;;;20.80;11.10;;;3.30;88.10;;;;;;4937809;29;20424;-73
2021/01/31 14:52:37;;;;;;;20.60;11.07;;;3.10;88.60;;;;;;4937664;29;21046;-73
2021/01/31 14:55:33;;;;;;;22.27;10.77;;;2.80;89.00;;;;;;4938087;29;20550;-74
2021/01/31 14:57:58;;;;;;;23.47;10.30;;;2.50;89.70;;;;;;4937169;29;20242;-73
2021/01/31 15:00:36;;;;;;;19.83;10.97;;;2.20;90.40;;;;;;4937561;29;20420;-73
2021/01/31 15:03:05;;;;;;;28.60;12.10;;;2.10;91.20;;;;;;4937949;29;20216;-73
2021/01/31 15:05:31;;;;;;;24.67;11.23;;;1.90;91.60;;;;;;4937692;29;20941;-73
2021/01/31 15:07:56;;;;;;;20.97;11.00;;;1.80;92.00;;;;;;4937466;29;20423;-73
2021/01/31 15:10:23;;;;;;;23.63;12.40;;;1.70;92.40;;;;;;4937930;29;20210;-73
2021/01/31 15:12:48;;;;;;;29.73;13.93;;;1.70;92.90;;;;;;4938336;29;20187;-73
2021/01/31 15:15:14;;;;;;;27.37;12.30;;;1.60;93.00;;;;;;4938622;29;20462;-73
2021/01/31 15:17:41;;;;;;;29.60;13.50;;;1.50;93.00;;;;;;4937436;29;20188;-73
2021/01/31 15:20:12;;;;;;;32.53;15.40;;;1.40;93.30;;;;;;4937271;29;20180;-73
2021/01/31 15:22:37;;;;;;;31.90;14.07;;;1.30;93.90;;;;;;4937131;29;20451;-73
2021/01/31 15:25:05;;;;;;;32.97;15.53;;;1.30;94.00;;;;;;4937671;29;20422;-73
2021/01/31 15:27:30;;;;;;;33.17;14.70;;;1.10;94.30;;;;;;4938425;29;20182;-73
2021/01/31 15:29:56;;;;;;;31.77;13.60;;;1.10;94.70;;;;;;4937335;29;20423;-73
2021/01/31 15:32:22;;;;;;;28.67;13.63;;;0.90;95.00;;;;;;4937520;29;20211;-73
2021/01/31 15:34:47;;;;;;;33.00;15.00;;;0.80;95.30;;;;;;4936966;29;20188;-74
2021/01/31 15:37:13;;;;;;;29.30;13.50;;;0.70;95.70;;;;;;4936649;29;20196;-73
2021/01/31 15:39:39;;;;;;;31.27;13.93;;;0.60;96.00;;;;;;4942810;29;21201;-73
2021/01/31 15:42:06;;;;;;;28.13;12.97;;;0.60;96.10;;;;;;4940050;28;20740;-73
2021/01/31 15:44:33;;;;;;;31.07;14.00;;;0.50;96.40;;;;;;4951813;28;20233;-73
2021/01/31 15:47:00;;;;;;;30.17;15.07;;;0.50;96.50;;;;;;4948217;28;20420;-73
2021/01/31 15:49:27;;;;;;;29.17;13.17;;;0.40;96.60;;;;;;4946576;28;20463;-73
2021/01/31 15:51:56;;;;;;;30.53;14.17;;;0.40;96.70;;;;;;4944000;29;20473;-73
2021/01/31 15:54:22;;;;;;;27.17;13.73;;;0.30;96.90;;;;;;4946167;29;20494;-73
2021/01/31 15:56:48;;;;;;;28.77;12.97;;;0.20;97.10;;;;;;4943876;28;20455;-73
2021/01/31 15:59:13;;;;;;;22.23;11.20;;;0.10;97.20;;;;;;4940374;29;20424;-73
2021/01/31 16:01:40;;;;;;;30.03;13.23;;;0.00;97.30;;;;;;4944619;28;20215;-73
2021/01/31 16:04:06;;;;;;;25.07;12.90;;;0.00;97.30;;;;;;4945938;28;20925;-73
2021/01/31 16:06:32;;;;;;;29.03;13.03;;;-0.10;97.30;;;;;;4945974;29;20414;-73
2021/01/31 16:08:58;;;;;;;35.60;13.60;;;-0.20;97.30;;;;;;4946344;29;20411;-73
2021/01/31 16:11:24;;;;;;;30.70;13.97;;;-0.30;97.30;;;;;;4938639;29;20467;-73
2021/01/31 16:13:50;;;;;;;31.47;13.80;;;-0.30;97.30;;;;;;4935923;29;20796;-73
2021/01/31 16:16:16;;;;;;;31.40;13.50;;;-0.40;97.30;;;;;;4936290;29;20297;-73
2021/01/31 16:18:43;;;;;;;31.80;14.27;;;-0.50;97.30;;;;;;4937097;29;20809;-73
2021/01/31 16:21:09;;;;;;;28.90;13.47;;;-0.60;97.30;;;;;;4935725;29;20440;-73
2021/01/31 16:23:35;;;;;;;29.37;12.90;;;-0.70;97.30;;;;;;4935744;29;20434;-73
2021/01/31 16:26:01;;;;;;;27.93;12.50;;;-0.70;97.30;;;;;;4935797;29;20426;-73
2021/01/31 16:28:26;;;;;;;27.27;12.60;;;-0.80;97.30;;;;;;4937085;29;20266;-73
2021/01/31 16:30:52;;;;;;;23.73;11.60;;;-0.80;97.30;;;;;;4936765;29;20227;-73
2021/01/31 16:33:18;;;;;;;26.73;12.17;;;-0.90;97.30;;;;;;4935628;29;20180;-73
2021/01/31 16:35:44;;;;;;;27.40;13.10;;;-0.90;97.30;;;;;;4935443;29;20196;-73
2021/01/31 16:38:10;;;;;;;30.53;13.73;;;-1.00;97.30;;;;;;4935559;29;20180;-72
2021/01/31 16:40:38;;;;;;;30.77;14.37;;;-1.00;97.30;;;;;;4935703;29;20573;-72
2021/01/31 16:43:07;;;;;;;29.00;13.80;;;-1.00;97.30;;;;;;4935691;28;20415;-73
2021/01/31 16:45:39;;;;;;;32.60;13.93;;;-1.10;97.30;;;;;;4935908;29;20451;-73
2021/01/31 16:48:06;;;;;;;28.90;13.50;;;-1.10;97.30;;;;;;4936243;29;20504;-72
2021/01/31 16:50:32;;;;;;;30.17;14.53;;;-1.10;97.30;;;;;;4936563;28;20577;-72
2021/01/31 16:52:58;;;;;;;37.77;15.80;;;-1.10;97.30;;;;;;4935326;29;20420;-72
2021/01/31 16:55:24;;;;;;;36.93;15.23;;;-1.20;97.30;;;;;;4935913;29;20204;-73
2021/01/31 16:57:50;;;;;;;38.07;16.10;;;-1.20;97.30;;;;;;4935539;29;20416;-73
2021/01/31 17:00:18;;;;;;;32.23;13.93;;;-1.20;97.30;;;;;;4935531;29;20435;-73
2021/01/31 17:02:44;;;;;;;32.13;14.47;;;-1.30;97.30;;;;;;4935564;29;20198;-73
2021/01/31 17:05:11;;;;;;;32.93;16.20;;;-1.30;97.30;;;;;;4935547;29;20428;-73
2021/01/31 17:07:36;;;;;;;35.93;17.03;;;-1.30;97.30;;;;;;4935309;29;20669;-72
2021/01/31 17:10:04;;;;;;;38.57;17.37;;;-1.40;97.30;;;;;;4936949;29;20415;-73
2021/01/31 17:12:30;;;;;;;36.53;16.47;;;-1.40;97.30;;;;;;4935261;29;20231;-72
2021/01/31 17:14:55;;;;;;;30.80;14.20;;;-1.40;97.30;;;;;;4935351;29;20546;-72
2021/01/31 17:17:21;;;;;;;37.27;17.40;;;-1.50;97.30;;;;;;4935501;29;20176;-72
2021/01/31 17:19:46;;;;;;;38.23;17.03;;;-1.50;97.30;;;;;;4934896;29;20208;-73
2021/01/31 17:22:12;;;;;;;31.90;15.63;;;-1.50;97.30;;;;;;4934767;29;20686;-72
2021/01/31 17:24:38;;;;;;;37.33;16.10;;;-1.50;97.30;;;;;;4935554;29;20172;-72
2021/01/31 17:27:05;;;;;;;39.60;18.93;;;-1.50;97.30;;;;;;4935111;29;20176;-73
2021/01/31 17:29:30;;;;;;;35.87;16.97;;;-1.60;97.30;;;;;;4934954;29;20943;-73
2021/01/31 17:31:57;;;;;;;34.53;16.13;;;-1.60;97.30;;;;;;4935230;29;20514;-72
2021/01/31 17:34:24;;;;;;;34.90;14.57;;;-1.70;97.30;;;;;;4934863;29;20274;-72
2021/01/31 17:36:49;;;;;;;38.67;15.60;;;-1.70;97.30;;;;;;4934659;29;20456;-72
2021/01/31 17:39:17;;;;;;;34.00;14.83;;;-1.80;97.30;;;;;;4935473;29;20447;-72
2021/01/31 17:41:42;;;;;;;33.37;16.00;;;-1.90;97.30;;;;;;4934369;29;20447;-74
2021/01/31 17:44:08;;;;;;;32.87;16.10;;;-1.90;97.30;;;;;;4934696;29;20458;-72
2021/01/31 17:46:35;;;;;;;29.70;15.97;;;-2.00;97.30;;;;;;4935301;29;20266;-72
2021/01/31 17:49:00;;;;;;;36.17;14.83;;;-2.00;97.30;;;;;;4934566;29;20861;-72
2021/01/31 17:51:26;;;;;;;47.70;19.47;;;-2.00;97.30;;;;;;4934518;29;20550;-73
2021/01/31 17:53:52;;;;;;;49.63;18.47;;;-2.00;97.30;;;;;;4936298;29;20246;-72
2021/01/31 17:56:17;;;;;;;63.13;22.70;;;-2.00;97.30;;;;;;4935785;29;20217;-73
2021/01/31 17:58:43;;;;;;;59.67;24.97;;;-2.10;97.30;;;;;;4934737;29;20211;-72
2021/01/31 18:01:12;;;;;;;65.13;24.10;;;-2.10;97.30;;;;;;4934448;29;20211;-72
2021/01/31 18:03:38;;;;;;;61.03;23.00;;;-2.10;97.30;;;;;;4934367;29;20187;-72
2021/01/31 18:06:03;;;;;;;54.40;21.50;;;-2.10;97.30;;;;;;4934521;29;20434;-72
2021/01/31 18:08:29;;;;;;;53.07;21.93;;;-2.10;97.30;;;;;;4936090;29;20180;-72
2021/01/31 18:10:55;;;;;;;58.37;20.80;;;-2.10;97.30;;;;;;4934254;29;20212;-72
2021/01/31 18:13:20;;;;;;;48.07;18.90;;;-2.10;97.30;;;;;;4935824;29;20176;-72
2021/01/31 18:15:46;;;;;;;35.90;16.80;;;-2.10;97.30;;;;;;4934707;29;20215;-72
2021/01/31 18:18:12;;;;;;;32.40;15.40;;;-2.20;97.30;;;;;;4934415;29;20235;-72
2021/01/31 18:20:38;;;;;;;37.50;15.80;;;-2.20;97.30;;;;;;4937001;29;20535;-71
2021/01/31 18:23:03;;;;;;;34.50;15.63;;;-2.20;97.30;;;;;;4939806;29;20176;-72
2021/01/31 18:25:29;;;;;;;35.63;14.80;;;-2.30;97.30;;;;;;4938271;29;20180;-72
2021/01/31 18:27:55;;;;;;;36.37;15.07;;;-2.30;97.30;;;;;;4938374;29;20275;-73
2021/01/31 18:30:25;;;;;;;37.30;15.40;;;-2.40;97.30;;;;;;4938150;29;20557;-73
2021/01/31 18:32:51;;;;;;;32.40;13.87;;;-2.40;97.30;;;;;;4937951;29;20228;-73
2021/01/31 18:35:17;;;;;;;42.00;18.27;;;-2.50;97.30;;;;;;4937815;29;20607;-73
2021/01/31 18:37:43;;;;;;;45.70;19.00;;;-2.50;97.30;;;;;;4939538;29;20177;-73
2021/01/31 18:40:10;;;;;;;41.20;17.83;;;-2.60;97.30;;;;;;4938048;29;20921;-73
2021/01/31 18:42:36;;;;;;;34.03;16.23;;;-2.60;97.30;;;;;;4938003;29;20450;-72
2021/01/31 18:45:04;;;;;;;33.63;14.77;;;-2.70;97.30;;;;;;4938244;29;20822;-74
2021/01/31 18:47:29;;;;;;;39.27;15.73;;;-2.70;97.30;;;;;;4938886;29;20455;-73